sensor_id;sensor_type;location;lat;lon;timestamp;P1;durP1;ratioP1;P2;durP2;ratioP2
29934;SDS011;19905;53.370;-6.314;2023-03-29T00:01:46;22.48;;;3.25;;
29934;SDS011;19905;53.370;-6.314;2023-03-29T00:04:15;19.75;;;2.80;;
29934;SDS011;19905;53.370;-6.314;2023-03-29T00:06:45;19.70;;;3.00;;
29934;SDS011;19905;53.370;-6.314;2023-03-29T00:09:16;23.83;;;3.50;;
29934;SDS011;19905;53.370;-6.314;2023-03-29T00:11:45;22.60;;;2.90;;
29934;SDS011;19905;53.370;-6.314;2023-03-29T00:14:14;24.52;;;2.67;;
29934;SDS011;19905;53.370;-6.314;2023-03-29T00:16:44;19.67;;;2.70;;
29934;SDS011;19905;53.370;-6.314;2023-03-29T00:19:13;21.70;;;3.20;;
29934;SDS011;19905;53.370;-6.314;2023-03-29T00:21:42;16.05;;;2.38;;
29934;SDS011;19905;53.370;-6.314;2023-03-29T00:24:10;18.15;;;2.67;;
29934;SDS011;19905;53.370;-6.314;2023-03-29T00:26:38;16.48;;;2.40;;
29934;SDS011;19905;53.370;-6.314;2023-03-29T00:29:07;15.80;;;2.40;;
29934;SDS011;19905;53.370;-6.314;2023-03-29T00:31:36;22.00;;;2.70;;
29934;SDS011;19905;53.370;-6.314;2023-03-29T00:34:06;19.67;;;2.90;;
29934;SDS011;19905;53.370;-6.314;2023-03-29T00:36:35;15.60;;;2.60;;
29934;SDS011;19905;53.370;-6.314;2023-03-29T00:39:06;20.08;;;2.50;;
29934;SDS011;19905;53.370;-6.314;2023-03-29T00:41:35;18.85;;;2.67;;
29934;SDS011;19905;53.370;-6.314;2023-03-29T00:44:03;23.98;;;2.80;;
29934;SDS011;19905;53.370;-6.314;2023-03-29T00:46:32;23.52;;;3.53;;
29934;SDS011;19905;53.370;-6.314;2023-03-29T00:49:02;18.52;;;2.90;;
29934;SDS011;19905;53.370;-6.314;2023-03-29T00:51:35;27.48;;;3.78;;
29934;SDS011;19905;53.370;-6.314;2023-03-29T00:54:07;25.58;;;3.22;;
29934;SDS011;19905;53.370;-6.314;2023-03-29T00:56:40;23.90;;;2.92;;
29934;SDS011;19905;53.370;-6.314;2023-03-29T00:59:12;19.85;;;2.78;;
29934;SDS011;19905;53.370;-6.314;2023-03-29T01:01:46;19.75;;;2.78;;
29934;SDS011;19905;53.370;-6.314;2023-03-29T01:04:23;23.85;;;2.47;;
29934;SDS011;19905;53.370;-6.314;2023-03-29T01:06:59;20.88;;;2.83;;
29934;SDS011;19905;53.370;-6.314;2023-03-29T01:09:34;24.70;;;3.00;;
29934;SDS011;19905;53.370;-6.314;2023-03-29T01:12:07;17.40;;;2.53;;
29934;SDS011;19905;53.370;-6.314;2023-03-29T01:14:44;19.40;;;2.97;;
29934;SDS011;19905;53.370;-6.314;2023-03-29T01:17:20;23.08;;;2.95;;
29934;SDS011;19905;53.370;-6.314;2023-03-29T01:19:53;26.42;;;3.35;;
29934;SDS011;19905;53.370;-6.314;2023-03-29T01:22:27;18.45;;;2.80;;
29934;SDS011;19905;53.370;-6.314;2023-03-29T01:25:05;21.52;;;2.85;;
29934;SDS011;19905;53.370;-6.314;2023-03-29T01:27:48;21.50;;;2.92;;
29934;SDS011;19905;53.370;-6.314;2023-03-29T01:30:24;18.55;;;2.63;;
29934;SDS011;19905;53.370;-6.314;2023-03-29T01:32:58;22.67;;;3.28;;
29934;SDS011;19905;53.370;-6.314;2023-03-29T01:35:34;21.85;;;2.50;;
29934;SDS011;19905;53.370;-6.314;2023-03-29T01:38:08;22.20;;;3.00;;
29934;SDS011;19905;53.370;-6.314;2023-03-29T01:40:42;20.45;;;2.65;;
29934;SDS011;19905;53.370;-6.314;2023-03-29T01:43:15;21.00;;;2.75;;
29934;SDS011;19905;53.370;-6.314;2023-03-29T01:45:50;23.60;;;2.80;;
29934;SDS011;19905;53.370;-6.314;2023-03-29T01:48:28;15.52;;;2.90;;
29934;SDS011;19905;53.370;-6.314;2023-03-29T01:51:01;23.27;;;2.90;;
29934;SDS011;19905;53.370;-6.314;2023-03-29T01:53:35;24.80;;;2.72;;
29934;SDS011;19905;53.370;-6.314;2023-03-29T01:56:10;24.58;;;3.13;;
29934;SDS011;19905;53.370;-6.314;2023-03-29T01:58:44;25.90;;;3.20;;
29934;SDS011;19905;53.370;-6.314;2023-03-29T02:01:17;23.23;;;2.63;;
29934;SDS011;19905;53.370;-6.314;2023-03-29T02:03:53;20.67;;;2.83;;
29934;SDS011;19905;53.370;-6.314;2023-03-29T02:06:27;21.65;;;3.10;;
29934;SDS011;19905;53.370;-6.314;2023-03-29T02:08:59;28.00;;;3.25;;
29934;SDS011;19905;53.370;-6.314;2023-03-29T02:11:30;25.40;;;2.85;;
29934;SDS011;19905;53.370;-6.314;2023-03-29T02:14:00;25.95;;;3.33;;
29934;SDS011;19905;53.370;-6.314;2023-03-29T02:16:33;25.58;;;2.97;;
29934;SDS011;19905;53.370;-6.314;2023-03-29T02:19:02;24.50;;;2.95;;
29934;SDS011;19905;53.370;-6.314;2023-03-29T02:21:35;25.80;;;3.35;;
29934;SDS011;19905;53.370;-6.314;2023-03-29T02:24:09;28.83;;;3.75;;
29934;SDS011;19905;53.370;-6.314;2023-03-29T02:26:41;22.25;;;3.28;;
29934;SDS011;19905;53.370;-6.314;2023-03-29T02:29:11;23.00;;;3.17;;
29934;SDS011;19905;53.370;-6.314;2023-03-29T02:31:41;22.52;;;3.08;;
29934;SDS011;19905;53.370;-6.314;2023-03-29T02:34:15;21.13;;;3.25;;
29934;SDS011;19905;53.370;-6.314;2023-03-29T02:36:50;27.48;;;3.38;;
29934;SDS011;19905;53.370;-6.314;2023-03-29T02:39:22;24.35;;;3.92;;
29934;SDS011;19905;53.370;-6.314;2023-03-29T02:41:53;26.27;;;3.47;;
29934;SDS011;19905;53.370;-6.314;2023-03-29T02:44:25;21.20;;;3.05;;
29934;SDS011;19905;53.370;-6.314;2023-03-29T02:46:57;20.63;;;3.30;;
29934;SDS011;19905;53.370;-6.314;2023-03-29T02:49:30;20.25;;;2.95;;
29934;SDS011;19905;53.370;-6.314;2023-03-29T02:52:00;22.08;;;2.80;;
29934;SDS011;19905;53.370;-6.314;2023-03-29T02:54:37;18.92;;;2.70;;
29934;SDS011;19905;53.370;-6.314;2023-03-29T02:57:09;17.77;;;2.60;;
29934;SDS011;19905;53.370;-6.314;2023-03-29T02:59:40;19.38;;;2.80;;
29934;SDS011;19905;53.370;-6.314;2023-03-29T03:02:10;21.52;;;2.60;;
29934;SDS011;19905;53.370;-6.314;2023-03-29T03:04:39;24.13;;;3.00;;
29934;SDS011;19905;53.370;-6.314;2023-03-29T03:07:08;21.90;;;3.28;;
29934;SDS011;19905;53.370;-6.314;2023-03-29T03:09:37;19.17;;;2.60;;
29934;SDS011;19905;53.370;-6.314;2023-03-29T03:12:06;18.05;;;2.88;;
29934;SDS011;19905;53.370;-6.314;2023-03-29T03:14:35;25.23;;;3.30;;
29934;SDS011;19905;53.370;-6.314;2023-03-29T03:17:05;23.83;;;2.80;;
29934;SDS011;19905;53.370;-6.314;2023-03-29T03:19:34;17.15;;;2.67;;
29934;SDS011;19905;53.370;-6.314;2023-03-29T03:22:04;19.33;;;2.55;;
29934;SDS011;19905;53.370;-6.314;2023-03-29T03:24:33;23.70;;;3.03;;
29934;SDS011;19905;53.370;-6.314;2023-03-29T03:27:05;19.15;;;2.67;;
29934;SDS011;19905;53.370;-6.314;2023-03-29T03:29:34;17.90;;;2.45;;
29934;SDS011;19905;53.370;-6.314;2023-03-29T03:32:05;15.23;;;2.58;;
29934;SDS011;19905;53.370;-6.314;2023-03-29T03:34:34;14.55;;;2.60;;
29934;SDS011;19905;53.370;-6.314;2023-03-29T03:37:04;15.45;;;2.50;;
29934;SDS011;19905;53.370;-6.314;2023-03-29T03:39:33;14.63;;;2.25;;
29934;SDS011;19905;53.370;-6.314;2023-03-29T03:42:03;14.88;;;2.15;;
29934;SDS011;19905;53.370;-6.314;2023-03-29T03:44:34;17.85;;;2.30;;
29934;SDS011;19905;53.370;-6.314;2023-03-29T03:47:04;17.73;;;2.13;;
29934;SDS011;19905;53.370;-6.314;2023-03-29T03:49:34;14.77;;;2.00;;
29934;SDS011;19905;53.370;-6.314;2023-03-29T03:52:03;16.65;;;1.92;;
29934;SDS011;19905;53.370;-6.314;2023-03-29T03:54:32;17.25;;;2.42;;
29934;SDS011;19905;53.370;-6.314;2023-03-29T03:57:01;17.80;;;2.40;;
29934;SDS011;19905;53.370;-6.314;2023-03-29T03:59:29;21.83;;;2.67;;
29934;SDS011;19905;53.370;-6.314;2023-03-29T04:01:58;17.92;;;2.15;;
29934;SDS011;19905;53.370;-6.314;2023-03-29T04:04:29;20.38;;;2.60;;
29934;SDS011;19905;53.370;-6.314;2023-03-29T04:06:57;14.50;;;2.40;;
29934;SDS011;19905;53.370;-6.314;2023-03-29T04:09:28;12.82;;;2.05;;
29934;SDS011;19905;53.370;-6.314;2023-03-29T04:11:58;14.95;;;2.15;;
29934;SDS011;19905;53.370;-6.314;2023-03-29T04:14:27;17.20;;;2.13;;
29934;SDS011;19905;53.370;-6.314;2023-03-29T04:16:57;13.65;;;2.00;;
29934;SDS011;19905;53.370;-6.314;2023-03-29T04:19:26;14.15;;;1.83;;
29934;SDS011;19905;53.370;-6.314;2023-03-29T04:21:56;15.20;;;1.85;;
29934;SDS011;19905;53.370;-6.314;2023-03-29T04:24:25;15.23;;;1.88;;
29934;SDS011;19905;53.370;-6.314;2023-03-29T04:26:54;15.63;;;1.65;;
29934;SDS011;19905;53.370;-6.314;2023-03-29T04:29:22;15.90;;;1.70;;
29934;SDS011;19905;53.370;-6.314;2023-03-29T04:31:51;10.20;;;1.80;;
29934;SDS011;19905;53.370;-6.314;2023-03-29T04:34:22;10.55;;;1.52;;
29934;SDS011;19905;53.370;-6.314;2023-03-29T04:36:50;10.10;;;1.40;;
29934;SDS011;19905;53.370;-6.314;2023-03-29T04:39:21;14.25;;;1.77;;
29934;SDS011;19905;53.370;-6.314;2023-03-29T04:41:59;16.85;;;2.10;;
29934;SDS011;19905;53.370;-6.314;2023-03-29T04:44:28;12.13;;;1.90;;
29934;SDS011;19905;53.370;-6.314;2023-03-29T04:46:59;16.55;;;2.08;;
29934;SDS011;19905;53.370;-6.314;2023-03-29T04:49:27;13.95;;;2.10;;
29934;SDS011;19905;53.370;-6.314;2023-03-29T04:51:56;15.50;;;2.40;;
29934;SDS011;19905;53.370;-6.314;2023-03-29T04:54:28;20.60;;;2.90;;
29934;SDS011;19905;53.370;-6.314;2023-03-29T04:56:56;23.40;;;3.00;;
29934;SDS011;19905;53.370;-6.314;2023-03-29T04:59:25;21.88;;;3.75;;
29934;SDS011;19905;53.370;-6.314;2023-03-29T05:01:54;23.58;;;3.35;;
29934;SDS011;19905;53.370;-6.314;2023-03-29T05:04:22;26.55;;;3.40;;
29934;SDS011;19905;53.370;-6.314;2023-03-29T05:06:51;20.17;;;3.20;;
29934;SDS011;19905;53.370;-6.314;2023-03-29T05:09:20;11.48;;;2.00;;
29934;SDS011;19905;53.370;-6.314;2023-03-29T05:11:50;12.55;;;1.88;;
29934;SDS011;19905;53.370;-6.314;2023-03-29T05:14:19;14.43;;;2.50;;
29934;SDS011;19905;53.370;-6.314;2023-03-29T05:16:49;18.70;;;2.78;;
29934;SDS011;19905;53.370;-6.314;2023-03-29T05:19:17;19.52;;;3.00;;
29934;SDS011;19905;53.370;-6.314;2023-03-29T05:21:47;12.05;;;2.65;;
29934;SDS011;19905;53.370;-6.314;2023-03-29T05:24:16;16.80;;;2.90;;
29934;SDS011;19905;53.370;-6.314;2023-03-29T05:26:45;13.60;;;2.90;;
29934;SDS011;19905;53.370;-6.314;2023-03-29T05:29:19;10.13;;;1.70;;
29934;SDS011;19905;53.370;-6.314;2023-03-29T05:31:49;10.18;;;2.10;;
29934;SDS011;19905;53.370;-6.314;2023-03-29T05:34:19;18.27;;;2.63;;
29934;SDS011;19905;53.370;-6.314;2023-03-29T05:36:48;13.82;;;2.50;;
29934;SDS011;19905;53.370;-6.314;2023-03-29T05:39:17;15.85;;;2.63;;
29934;SDS011;19905;53.370;-6.314;2023-03-29T05:41:46;9.75;;;1.77;;
29934;SDS011;19905;53.370;-6.314;2023-03-29T05:44:15;10.20;;;1.77;;
29934;SDS011;19905;53.370;-6.314;2023-03-29T05:46:46;9.23;;;1.55;;
29934;SDS011;19905;53.370;-6.314;2023-03-29T05:49:14;9.50;;;1.80;;
29934;SDS011;19905;53.370;-6.314;2023-03-29T05:51:42;8.48;;;1.52;;
29934;SDS011;19905;53.370;-6.314;2023-03-29T05:54:12;8.27;;;1.80;;
29934;SDS011;19905;53.370;-6.314;2023-03-29T05:56:40;9.23;;;1.77;;
29934;SDS011;19905;53.370;-6.314;2023-03-29T05:59:09;13.45;;;1.83;;
29934;SDS011;19905;53.370;-6.314;2023-03-29T06:01:39;9.07;;;1.35;;
29934;SDS011;19905;53.370;-6.314;2023-03-29T06:04:09;11.98;;;1.60;;
29934;SDS011;19905;53.370;-6.314;2023-03-29T06:06:38;6.72;;;1.50;;
29934;SDS011;19905;53.370;-6.314;2023-03-29T06:09:07;9.27;;;1.40;;
29934;SDS011;19905;53.370;-6.314;2023-03-29T06:11:36;6.97;;;1.40;;
29934;SDS011;19905;53.370;-6.314;2023-03-29T06:14:06;3.78;;;1.20;;
29934;SDS011;19905;53.370;-6.314;2023-03-29T06:16:34;6.10;;;1.17;;
29934;SDS011;19905;53.370;-6.314;2023-03-29T06:19:05;6.63;;;1.48;;
29934;SDS011;19905;53.370;-6.314;2023-03-29T06:21:35;9.05;;;1.30;;
29934;SDS011;19905;53.370;-6.314;2023-03-29T06:24:05;7.97;;;1.30;;
29934;SDS011;19905;53.370;-6.314;2023-03-29T06:26:38;6.90;;;1.02;;
29934;SDS011;19905;53.370;-6.314;2023-03-29T06:29:07;3.15;;;0.80;;
29934;SDS011;19905;53.370;-6.314;2023-03-29T06:31:36;2.90;;;0.63;;
29934;SDS011;19905;53.370;-6.314;2023-03-29T06:34:04;5.50;;;0.70;;
29934;SDS011;19905;53.370;-6.314;2023-03-29T06:36:33;4.53;;;0.57;;
29934;SDS011;19905;53.370;-6.314;2023-03-29T06:39:03;3.40;;;0.50;;
29934;SDS011;19905;53.370;-6.314;2023-03-29T06:41:34;2.95;;;0.60;;
29934;SDS011;19905;53.370;-6.314;2023-03-29T06:44:02;5.72;;;0.77;;
29934;SDS011;19905;53.370;-6.314;2023-03-29T06:46:31;3.22;;;0.60;;
29934;SDS011;19905;53.370;-6.314;2023-03-29T06:48:59;3.90;;;0.60;;
29934;SDS011;19905;53.370;-6.314;2023-03-29T06:51:29;4.35;;;0.90;;
29934;SDS011;19905;53.370;-6.314;2023-03-29T06:54:05;3.85;;;0.70;;
29934;SDS011;19905;53.370;-6.314;2023-03-29T06:56:34;1.63;;;0.32;;
29934;SDS011;19905;53.370;-6.314;2023-03-29T06:59:02;2.55;;;0.60;;
29934;SDS011;19905;53.370;-6.314;2023-03-29T07:01:31;2.97;;;0.40;;
29934;SDS011;19905;53.370;-6.314;2023-03-29T07:04:00;2.45;;;0.50;;
29934;SDS011;19905;53.370;-6.314;2023-03-29T07:06:30;2.42;;;0.50;;
29934;SDS011;19905;53.370;-6.314;2023-03-29T07:08:59;3.25;;;0.35;;
29934;SDS011;19905;53.370;-6.314;2023-03-29T07:11:37;2.72;;;0.60;;
29934;SDS011;19905;53.370;-6.314;2023-03-29T07:14:06;3.97;;;0.50;;
29934;SDS011;19905;53.370;-6.314;2023-03-29T07:16:35;1.35;;;0.30;;
29934;SDS011;19905;53.370;-6.314;2023-03-29T07:19:03;6.05;;;0.60;;
29934;SDS011;19905;53.370;-6.314;2023-03-29T07:21:34;3.05;;;0.65;;
29934;SDS011;19905;53.370;-6.314;2023-03-29T07:24:03;2.45;;;0.40;;
29934;SDS011;19905;53.370;-6.314;2023-03-29T07:26:32;1.33;;;0.40;;
29934;SDS011;19905;53.370;-6.314;2023-03-29T07:29:02;2.20;;;0.47;;
29934;SDS011;19905;53.370;-6.314;2023-03-29T07:31:32;4.75;;;0.50;;
29934;SDS011;19905;53.370;-6.314;2023-03-29T07:34:04;2.60;;;0.52;;
29934;SDS011;19905;53.370;-6.314;2023-03-29T07:36:36;2.35;;;0.47;;
29934;SDS011;19905;53.370;-6.314;2023-03-29T07:39:06;2.95;;;0.60;;
29934;SDS011;19905;53.370;-6.314;2023-03-29T07:41:35;3.78;;;0.63;;
29934;SDS011;19905;53.370;-6.314;2023-03-29T07:44:06;5.53;;;0.70;;
29934;SDS011;19905;53.370;-6.314;2023-03-29T07:46:36;5.55;;;0.70;;
29934;SDS011;19905;53.370;-6.314;2023-03-29T07:49:04;4.43;;;0.68;;
29934;SDS011;19905;53.370;-6.314;2023-03-29T07:51:34;4.13;;;0.85;;
29934;SDS011;19905;53.370;-6.314;2023-03-29T07:54:03;3.35;;;0.90;;
29934;SDS011;19905;53.370;-6.314;2023-03-29T07:56:32;8.13;;;1.00;;
29934;SDS011;19905;53.370;-6.314;2023-03-29T07:59:00;6.60;;;0.88;;
29934;SDS011;19905;53.370;-6.314;2023-03-29T08:01:30;6.78;;;0.90;;
29934;SDS011;19905;53.370;-6.314;2023-03-29T08:03:59;4.55;;;0.90;;
29934;SDS011;19905;53.370;-6.314;2023-03-29T08:06:28;7.15;;;1.10;;
29934;SDS011;19905;53.370;-6.314;2023-03-29T08:08:57;4.63;;;0.98;;
29934;SDS011;19905;53.370;-6.314;2023-03-29T08:11:25;4.15;;;0.90;;
29934;SDS011;19905;53.370;-6.314;2023-03-29T08:13:54;4.25;;;1.20;;
29934;SDS011;19905;53.370;-6.314;2023-03-29T08:16:25;3.42;;;1.00;;
29934;SDS011;19905;53.370;-6.314;2023-03-29T08:18:55;5.25;;;1.10;;
29934;SDS011;19905;53.370;-6.314;2023-03-29T08:21:23;4.25;;;1.20;;
29934;SDS011;19905;53.370;-6.314;2023-03-29T08:23:53;2.17;;;0.90;;
29934;SDS011;19905;53.370;-6.314;2023-03-29T08:26:22;3.35;;;0.88;;
29934;SDS011;19905;53.370;-6.314;2023-03-29T08:28:50;4.72;;;0.80;;
29934;SDS011;19905;53.370;-6.314;2023-03-29T08:31:19;3.42;;;1.02;;
29934;SDS011;19905;53.370;-6.314;2023-03-29T08:33:47;3.63;;;0.93;;
29934;SDS011;19905;53.370;-6.314;2023-03-29T08:36:18;4.38;;;0.85;;
29934;SDS011;19905;53.370;-6.314;2023-03-29T08:38:46;3.85;;;0.90;;
29934;SDS011;19905;53.370;-6.314;2023-03-29T08:41:20;5.78;;;0.90;;
29934;SDS011;19905;53.370;-6.314;2023-03-29T08:44:07;2.80;;;0.90;;
29934;SDS011;19905;53.370;-6.314;2023-03-29T08:46:50;3.17;;;1.27;;
29934;SDS011;19905;53.370;-6.314;2023-03-29T08:49:26;4.60;;;1.10;;
29934;SDS011;19905;53.370;-6.314;2023-03-29T08:51:59;2.83;;;0.90;;
29934;SDS011;19905;53.370;-6.314;2023-03-29T08:54:32;3.60;;;1.13;;
29934;SDS011;19905;53.370;-6.314;2023-03-29T08:57:06;4.50;;;1.05;;
29934;SDS011;19905;53.370;-6.314;2023-03-29T08:59:43;1.85;;;0.77;;
29934;SDS011;19905;53.370;-6.314;2023-03-29T09:02:16;4.15;;;0.80;;
29934;SDS011;19905;53.370;-6.314;2023-03-29T09:04:50;4.07;;;0.70;;
29934;SDS011;19905;53.370;-6.314;2023-03-29T09:07:24;3.40;;;0.82;;
29934;SDS011;19905;53.370;-6.314;2023-03-29T09:09:53;3.33;;;0.80;;
29934;SDS011;19905;53.370;-6.314;2023-03-29T09:12:25;1.63;;;0.60;;
29934;SDS011;19905;53.370;-6.314;2023-03-29T09:15:10;1.13;;;0.50;;
29934;SDS011;19905;53.370;-6.314;2023-03-29T09:17:48;1.85;;;0.60;;
29934;SDS011;19905;53.370;-6.314;2023-03-29T09:20:28;2.15;;;0.60;;
29934;SDS011;19905;53.370;-6.314;2023-03-29T09:23:10;3.40;;;0.52;;
29934;SDS011;19905;53.370;-6.314;2023-03-29T09:25:52;2.25;;;0.50;;
29934;SDS011;19905;53.370;-6.314;2023-03-29T09:28:30;4.13;;;0.50;;
29934;SDS011;19905;53.370;-6.314;2023-03-29T09:31:04;1.88;;;0.45;;
29934;SDS011;19905;53.370;-6.314;2023-03-29T09:33:39;1.67;;;0.50;;
29934;SDS011;19905;53.370;-6.314;2023-03-29T09:36:12;2.67;;;0.60;;
29934;SDS011;19905;53.370;-6.314;2023-03-29T09:38:46;3.20;;;0.47;;
29934;SDS011;19905;53.370;-6.314;2023-03-29T09:41:20;2.28;;;0.55;;
29934;SDS011;19905;53.370;-6.314;2023-03-29T09:43:53;1.85;;;0.43;;
29934;SDS011;19905;53.370;-6.314;2023-03-29T09:46:25;0.98;;;0.43;;
29934;SDS011;19905;53.370;-6.314;2023-03-29T09:48:56;2.95;;;0.60;;
29934;SDS011;19905;53.370;-6.314;2023-03-29T09:51:25;1.08;;;0.45;;
29934;SDS011;19905;53.370;-6.314;2023-03-29T09:53:59;5.45;;;1.05;;
29934;SDS011;19905;53.370;-6.314;2023-03-29T09:56:28;1.65;;;0.70;;
29934;SDS011;19905;53.370;-6.314;2023-03-29T09:58:56;4.57;;;1.10;;
29934;SDS011;19905;53.370;-6.314;2023-03-29T10:01:25;2.90;;;1.10;;
29934;SDS011;19905;53.370;-6.314;2023-03-29T10:04:05;6.00;;;1.00;;
29934;SDS011;19905;53.370;-6.314;2023-03-29T10:06:35;3.53;;;0.85;;
29934;SDS011;19905;53.370;-6.314;2023-03-29T10:09:14;3.15;;;0.90;;
29934;SDS011;19905;53.370;-6.314;2023-03-29T10:11:47;2.95;;;1.23;;
29934;SDS011;19905;53.370;-6.314;2023-03-29T10:14:28;3.85;;;1.08;;
29934;SDS011;19905;53.370;-6.314;2023-03-29T10:17:02;5.10;;;1.08;;
29934;SDS011;19905;53.370;-6.314;2023-03-29T10:19:33;3.00;;;1.10;;
29934;SDS011;19905;53.370;-6.314;2023-03-29T10:22:03;2.80;;;0.90;;
29934;SDS011;19905;53.370;-6.314;2023-03-29T10:24:35;2.40;;;0.93;;
29934;SDS011;19905;53.370;-6.314;2023-03-29T10:27:04;2.65;;;0.85;;
29934;SDS011;19905;53.370;-6.314;2023-03-29T10:29:38;2.55;;;0.70;;
29934;SDS011;19905;53.370;-6.314;2023-03-29T10:32:14;5.18;;;1.00;;
29934;SDS011;19905;53.370;-6.314;2023-03-29T10:34:45;3.08;;;1.02;;
29934;SDS011;19905;53.370;-6.314;2023-03-29T10:37:15;3.15;;;0.90;;
29934;SDS011;19905;53.370;-6.314;2023-03-29T10:39:46;3.03;;;0.88;;
29934;SDS011;19905;53.370;-6.314;2023-03-29T10:42:16;3.25;;;0.95;;
29934;SDS011;19905;53.370;-6.314;2023-03-29T10:44:54;2.83;;;0.90;;
29934;SDS011;19905;53.370;-6.314;2023-03-29T10:47:24;3.72;;;0.90;;
29934;SDS011;19905;53.370;-6.314;2023-03-29T10:49:54;1.65;;;0.80;;
29934;SDS011;19905;53.370;-6.314;2023-03-29T10:52:25;3.30;;;0.82;;
29934;SDS011;19905;53.370;-6.314;2023-03-29T10:54:57;3.05;;;0.82;;
29934;SDS011;19905;53.370;-6.314;2023-03-29T10:57:29;4.15;;;0.80;;
29934;SDS011;19905;53.370;-6.314;2023-03-29T11:00:06;1.75;;;0.65;;
29934;SDS011;19905;53.370;-6.314;2023-03-29T11:02:58;2.50;;;0.90;;
29934;SDS011;19905;53.370;-6.314;2023-03-29T11:05:48;3.65;;;0.90;;
29934;SDS011;19905;53.370;-6.314;2023-03-29T11:08:40;3.00;;;0.90;;
29934;SDS011;19905;53.370;-6.314;2023-03-29T11:11:21;1.65;;;0.85;;
29934;SDS011;19905;53.370;-6.314;2023-03-29T11:14:08;1.60;;;0.70;;
29934;SDS011;19905;53.370;-6.314;2023-03-29T11:16:44;5.63;;;0.77;;
29934;SDS011;19905;53.370;-6.314;2023-03-29T11:19:31;2.63;;;0.50;;
29934;SDS011;19905;53.370;-6.314;2023-03-29T11:22:08;1.77;;;0.40;;
29934;SDS011;19905;53.370;-6.314;2023-03-29T11:24:50;1.00;;;0.32;;
29934;SDS011;19905;53.370;-6.314;2023-03-29T11:27:39;1.40;;;0.50;;
29934;SDS011;19905;53.370;-6.314;2023-03-29T11:30:15;1.85;;;0.32;;
29934;SDS011;19905;53.370;-6.314;2023-03-29T11:32:54;0.70;;;0.30;;
29934;SDS011;19905;53.370;-6.314;2023-03-29T11:35:32;1.15;;;0.40;;
29934;SDS011;19905;53.370;-6.314;2023-03-29T11:38:15;1.92;;;0.55;;
29934;SDS011;19905;53.370;-6.314;2023-03-29T11:40:52;1.17;;;0.47;;
29934;SDS011;19905;53.370;-6.314;2023-03-29T11:43:28;5.63;;;0.50;;
29934;SDS011;19905;53.370;-6.314;2023-03-29T11:46:04;4.70;;;0.68;;
29934;SDS011;19905;53.370;-6.314;2023-03-29T11:48:40;3.13;;;0.50;;
29934;SDS011;19905;53.370;-6.314;2023-03-29T11:51:16;2.67;;;0.60;;
29934;SDS011;19905;53.370;-6.314;2023-03-29T11:53:51;2.00;;;0.50;;
29934;SDS011;19905;53.370;-6.314;2023-03-29T11:56:28;4.47;;;0.70;;
29934;SDS011;19905;53.370;-6.314;2023-03-29T11:59:04;3.35;;;0.77;;
29934;SDS011;19905;53.370;-6.314;2023-03-29T12:01:39;4.38;;;0.88;;
29934;SDS011;19905;53.370;-6.314;2023-03-29T12:04:14;7.03;;;1.00;;
29934;SDS011;19905;53.370;-6.314;2023-03-29T12:06:50;7.40;;;1.20;;
29934;SDS011;19905;53.370;-6.314;2023-03-29T12:09:27;8.95;;;1.50;;
29934;SDS011;19905;53.370;-6.314;2023-03-29T12:12:02;5.72;;;1.38;;
29934;SDS011;19905;53.370;-6.314;2023-03-29T12:14:43;7.10;;;1.30;;
29934;SDS011;19905;53.370;-6.314;2023-03-29T12:17:22;9.60;;;2.17;;
29934;SDS011;19905;53.370;-6.314;2023-03-29T12:19:59;8.55;;;1.30;;
29934;SDS011;19905;53.370;-6.314;2023-03-29T12:22:33;9.93;;;1.83;;
29934;SDS011;19905;53.370;-6.314;2023-03-29T12:25:05;11.95;;;1.90;;
29934;SDS011;19905;53.370;-6.314;2023-03-29T12:27:45;13.88;;;1.98;;
29934;SDS011;19905;53.370;-6.314;2023-03-29T12:30:33;12.02;;;2.20;;
29934;SDS011;19905;53.370;-6.314;2023-03-29T12:33:18;13.38;;;2.10;;
29934;SDS011;19905;53.370;-6.314;2023-03-29T12:36:04;15.40;;;2.55;;
29934;SDS011;19905;53.370;-6.314;2023-03-29T12:38:47;12.93;;;2.70;;
29934;SDS011;19905;53.370;-6.314;2023-03-29T12:41:19;11.38;;;1.90;;
29934;SDS011;19905;53.370;-6.314;2023-03-29T12:43:50;13.15;;;2.42;;
29934;SDS011;19905;53.370;-6.314;2023-03-29T12:46:22;14.40;;;2.55;;
29934;SDS011;19905;53.370;-6.314;2023-03-29T12:48:53;18.02;;;3.00;;
29934;SDS011;19905;53.370;-6.314;2023-03-29T12:51:26;12.77;;;2.10;;
29934;SDS011;19905;53.370;-6.314;2023-03-29T12:54:00;20.85;;;3.10;;
29934;SDS011;19905;53.370;-6.314;2023-03-29T12:56:34;18.98;;;2.80;;
29934;SDS011;19905;53.370;-6.314;2023-03-29T12:59:15;16.63;;;3.00;;
29934;SDS011;19905;53.370;-6.314;2023-03-29T13:01:57;21.40;;;3.47;;
29934;SDS011;19905;53.370;-6.314;2023-03-29T13:04:35;22.10;;;3.72;;
29934;SDS011;19905;53.370;-6.314;2023-03-29T13:07:10;17.13;;;3.03;;
29934;SDS011;19905;53.370;-6.314;2023-03-29T13:09:49;21.65;;;3.40;;
29934;SDS011;19905;53.370;-6.314;2023-03-29T13:12:21;19.33;;;3.33;;
29934;SDS011;19905;53.370;-6.314;2023-03-29T13:14:56;25.60;;;4.00;;
29934;SDS011;19905;53.370;-6.314;2023-03-29T13:17:33;23.77;;;4.07;;
29934;SDS011;19905;53.370;-6.314;2023-03-29T13:20:16;20.58;;;3.83;;
29934;SDS011;19905;53.370;-6.314;2023-03-29T13:22:58;21.73;;;3.80;;
29934;SDS011;19905;53.370;-6.314;2023-03-29T13:25:42;25.50;;;4.13;;
29934;SDS011;19905;53.370;-6.314;2023-03-29T13:28:25;24.52;;;4.32;;
29934;SDS011;19905;53.370;-6.314;2023-03-29T13:31:01;27.52;;;4.70;;
29934;SDS011;19905;53.370;-6.314;2023-03-29T13:33:43;24.70;;;4.18;;
29934;SDS011;19905;53.370;-6.314;2023-03-29T13:36:25;28.63;;;4.75;;
29934;SDS011;19905;53.370;-6.314;2023-03-29T13:39:15;24.25;;;4.43;;
29934;SDS011;19905;53.370;-6.314;2023-03-29T13:41:49;32.08;;;4.38;;
29934;SDS011;19905;53.370;-6.314;2023-03-29T13:44:26;30.83;;;4.47;;
29934;SDS011;19905;53.370;-6.314;2023-03-29T13:47:00;30.10;;;4.97;;
29934;SDS011;19905;53.370;-6.314;2023-03-29T13:49:33;35.33;;;5.10;;
29934;SDS011;19905;53.370;-6.314;2023-03-29T13:52:05;28.20;;;4.55;;
29934;SDS011;19905;53.370;-6.314;2023-03-29T13:54:44;30.10;;;5.32;;
29934;SDS011;19905;53.370;-6.314;2023-03-29T13:57:18;34.45;;;5.00;;
29934;SDS011;19905;53.370;-6.314;2023-03-29T13:59:54;29.45;;;5.03;;
29934;SDS011;19905;53.370;-6.314;2023-03-29T14:02:30;36.58;;;5.15;;
29934;SDS011;19905;53.370;-6.314;2023-03-29T14:05:08;37.53;;;5.63;;
29934;SDS011;19905;53.370;-6.314;2023-03-29T14:07:40;32.50;;;5.25;;
29934;SDS011;19905;53.370;-6.314;2023-03-29T14:10:14;31.98;;;4.70;;
29934;SDS011;19905;53.370;-6.314;2023-03-29T14:12:46;27.63;;;4.75;;
29934;SDS011;19905;53.370;-6.314;2023-03-29T14:15:20;26.33;;;4.53;;
29934;SDS011;19905;53.370;-6.314;2023-03-29T14:17:54;27.15;;;4.63;;
29934;SDS011;19905;53.370;-6.314;2023-03-29T14:20:27;27.60;;;4.45;;
29934;SDS011;19905;53.370;-6.314;2023-03-29T14:22:59;32.35;;;5.18;;
29934;SDS011;19905;53.370;-6.314;2023-03-29T14:25:28;32.22;;;5.50;;
29934;SDS011;19905;53.370;-6.314;2023-03-29T14:27:58;43.78;;;5.40;;
29934;SDS011;19905;53.370;-6.314;2023-03-29T14:30:27;31.55;;;5.55;;
29934;SDS011;19905;53.370;-6.314;2023-03-29T14:32:58;33.92;;;5.07;;
29934;SDS011;19905;53.370;-6.314;2023-03-29T14:35:32;25.63;;;4.53;;
29934;SDS011;19905;53.370;-6.314;2023-03-29T14:38:01;28.20;;;4.05;;
29934;SDS011;19905;53.370;-6.314;2023-03-29T14:40:30;28.88;;;4.93;;
29934;SDS011;19905;53.370;-6.314;2023-03-29T14:43:01;31.10;;;4.68;;
29934;SDS011;19905;53.370;-6.314;2023-03-29T14:45:33;29.75;;;5.28;;
29934;SDS011;19905;53.370;-6.314;2023-03-29T14:48:03;23.77;;;4.82;;
29934;SDS011;19905;53.370;-6.314;2023-03-29T14:50:35;32.85;;;5.28;;
29934;SDS011;19905;53.370;-6.314;2023-03-29T14:53:04;25.33;;;4.00;;
29934;SDS011;19905;53.370;-6.314;2023-03-29T14:55:33;27.85;;;4.93;;
29934;SDS011;19905;53.370;-6.314;2023-03-29T14:58:02;21.85;;;3.97;;
29934;SDS011;19905;53.370;-6.314;2023-03-29T15:00:43;30.17;;;5.40;;